サラエボ の空港の天気 - METARとTAF

サラエボ国際空港 ( LQSA / SJJ ) - ボスニア・ヘルツェゴビナ サラエボ
飛行場実況気象(Metar)
観測時間07/17 10:00 CEST (07/17 08:00 UTC)
風向・風速不定 1m/s
視程10km以上
天気現象
少しの雲 雲底高度 1680m
気温18℃
湿度60%
気圧1016hPa
METARLQSA 170800Z VRB02KT 9999 FEW055 18/10 Q1016 NOSIG
過去の天気等 Google飛行場航空写真 Wunderground天気予報

過去48時間のMETAR

飛行場予報(TAF)
発表時間: 7/17 07:00 CEST (7/17 05:00 UTC)
予報対象時間: 17日8時 CEST ~ 18日8時 CEST
風向・風速不定 3m/s
視程10km以上
全天の4割程度の雲 雲底高度 1520m
TAF LQSA 170500Z 1706/1806 VRB05KT 9999 SCT050 TX25/1713Z TN11/1803Z